createdAt,value
2023-10-26T00:00:39.462Z,15.20
2023-10-26T00:03:07.480Z,15.20
2023-10-26T00:05:41.751Z,15.20
2023-10-26T00:08:17.172Z,15.10
2023-10-26T00:10:48.290Z,15.10
2023-10-26T00:13:19.807Z,15.10
2023-10-26T00:15:50.904Z,15.10
2023-10-26T00:18:21.248Z,15.10
2023-10-26T00:20:50.341Z,15.10
2023-10-26T00:23:18.420Z,15.10
2023-10-26T00:26:01.206Z,15.10
2023-10-26T00:28:30.509Z,15.20
2023-10-26T00:30:58.453Z,15.20
2023-10-26T00:33:26.427Z,15.20
2023-10-26T00:36:00.294Z,15.20
2023-10-26T00:38:31.099Z,15.20
2023-10-26T00:41:01.964Z,15.30
2023-10-26T00:43:34.444Z,15.30
2023-10-26T00:46:02.677Z,15.20
2023-10-26T00:48:30.719Z,15.20
2023-10-26T00:50:59.039Z,15.20
2023-10-26T00:53:34.329Z,15.20
2023-10-26T00:56:02.380Z,15.30
2023-10-26T00:58:32.336Z,15.40
2023-10-26T01:01:04.988Z,15.50
2023-10-26T01:06:18.422Z,15.50
2023-10-26T01:08:46.450Z,15.60
2023-10-26T01:11:15.035Z,15.50
2023-10-26T01:13:43.240Z,15.50
2023-10-26T01:16:21.348Z,15.40
2023-10-26T01:18:49.427Z,15.40
2023-10-26T01:21:17.551Z,15.50
2023-10-26T01:23:49.883Z,15.60
2023-10-26T01:26:17.824Z,15.50
2023-10-26T01:28:45.729Z,15.50
2023-10-26T01:31:24.724Z,15.40
2023-10-26T01:33:58.274Z,15.40
2023-10-26T01:36:26.858Z,15.50
2023-10-26T01:39:08.539Z,15.50
2023-10-26T01:41:36.485Z,15.50
2023-10-26T01:44:05.374Z,15.50
2023-10-26T01:46:35.739Z,15.50
2023-10-26T01:49:04.297Z,15.40
2023-10-26T01:51:34.189Z,15.40
2023-10-26T01:54:02.139Z,15.40
2023-10-26T01:56:31.953Z,15.40
2023-10-26T01:58:59.920Z,15.40
2023-10-26T02:01:27.830Z,15.40
2023-10-26T02:03:58.577Z,15.30
2023-10-26T02:06:26.666Z,15.20
2023-10-26T02:09:03.709Z,15.30
2023-10-26T02:11:36.030Z,15.20
2023-10-26T02:14:06.804Z,15.20
2023-10-26T02:16:39.773Z,15.20
2023-10-26T02:19:14.967Z,15.20
2023-10-26T02:21:44.068Z,15.20
2023-10-26T02:24:12.104Z,15.20
2023-10-26T02:26:44.034Z,15.20
2023-10-26T02:29:11.977Z,15.20
2023-10-26T02:31:39.895Z,15.30
2023-10-26T02:34:15.036Z,15.30
2023-10-26T02:36:42.969Z,15.30
2023-10-26T02:39:13.840Z,15.40
2023-10-26T02:41:46.202Z,15.30
2023-10-26T02:44:16.541Z,15.40
2023-10-26T02:46:53.606Z,15.30
2023-10-26T02:49:21.545Z,15.40
2023-10-26T02:51:52.221Z,15.30
2023-10-26T02:54:20.137Z,15.30
2023-10-26T02:56:58.613Z,15.20
2023-10-26T02:59:29.577Z,15.20
2023-10-26T03:01:57.872Z,15.20
2023-10-26T03:04:25.832Z,15.20
2023-10-26T03:06:54.055Z,15.30
2023-10-26T03:09:23.933Z,15.30
2023-10-26T03:11:52.565Z,15.40
2023-10-26T03:14:21.927Z,15.40
2023-10-26T03:16:50.088Z,15.40
2023-10-26T03:19:27.122Z,15.40
2023-10-26T03:21:58.149Z,15.40
2023-10-26T03:24:33.452Z,15.40
2023-10-26T03:27:01.409Z,15.40
2023-10-26T03:29:30.702Z,15.40
2023-10-26T03:31:59.708Z,15.40
2023-10-26T03:34:29.378Z,15.30
2023-10-26T03:36:57.296Z,15.30
2023-10-26T03:39:28.182Z,15.20
2023-10-26T03:42:01.729Z,15.30
2023-10-26T03:44:31.074Z,15.30
2023-10-26T03:47:04.371Z,15.30
2023-10-26T03:49:32.329Z,15.20
2023-10-26T03:52:05.531Z,15.20
2023-10-26T03:54:42.585Z,15.20
2023-10-26T03:57:10.763Z,15.20
2023-10-26T03:59:42.819Z,15.20
2023-10-26T04:02:13.821Z,15.20
2023-10-26T04:04:45.023Z,15.30
2023-10-26T04:07:13.134Z,15.30
2023-10-26T04:09:41.070Z,15.30
2023-10-26T04:12:09.438Z,15.30
2023-10-26T04:14:41.753Z,15.20
2023-10-26T04:17:13.559Z,15.20
2023-10-26T04:19:41.457Z,15.20
2023-10-26T04:22:12.241Z,15.30
2023-10-26T04:24:46.368Z,15.30
2023-10-26T04:27:14.332Z,15.30
2023-10-26T04:29:53.865Z,15.40
2023-10-26T04:32:27.463Z,15.50
2023-10-26T04:35:10.523Z,15.50
2023-10-26T04:37:38.724Z,15.40
2023-10-26T04:40:14.141Z,15.50
2023-10-26T04:42:44.244Z,15.50
2023-10-26T04:45:17.665Z,15.50
2023-10-26T04:47:53.316Z,15.50
2023-10-26T04:50:21.297Z,15.50
2023-10-26T04:52:49.522Z,15.50
2023-10-26T04:55:20.272Z,15.40
2023-10-26T04:57:48.197Z,15.50
2023-10-26T05:00:20.652Z,15.40
2023-10-26T05:02:48.628Z,15.50
2023-10-26T05:05:22.805Z,15.50
2023-10-26T05:07:53.844Z,15.40
2023-10-26T05:10:30.437Z,15.40
2023-10-26T05:12:58.342Z,15.40
2023-10-26T05:15:29.928Z,15.40
2023-10-26T05:18:06.177Z,15.30
2023-10-26T05:20:34.884Z,15.40
2023-10-26T05:23:09.436Z,15.40
2023-10-26T05:25:38.534Z,15.40
2023-10-26T05:28:09.495Z,15.30
2023-10-26T05:30:47.193Z,15.30
2023-10-26T05:33:21.221Z,15.40
2023-10-26T05:35:49.139Z,15.40
2023-10-26T05:38:19.701Z,15.40
2023-10-26T05:40:56.362Z,15.40
2023-10-26T05:43:24.412Z,15.40
2023-10-26T05:45:55.642Z,15.50
2023-10-26T05:48:24.496Z,15.50
2023-10-26T05:50:58.464Z,15.60
2023-10-26T05:53:28.316Z,15.70
2023-10-26T05:55:59.534Z,15.70
2023-10-26T05:58:28.201Z,15.70
2023-10-26T06:00:57.920Z,15.70
2023-10-26T06:03:33.334Z,15.70
2023-10-26T06:06:01.946Z,15.70
2023-10-26T06:08:38.815Z,15.70
2023-10-26T06:11:07.322Z,15.60
2023-10-26T06:13:35.232Z,15.50
2023-10-26T06:16:04.760Z,15.60
2023-10-26T06:18:33.931Z,15.60
2023-10-26T06:21:05.159Z,15.60
2023-10-26T06:23:34.410Z,15.70
2023-10-26T06:26:03.478Z,15.70
2023-10-26T06:28:31.424Z,15.60
2023-10-26T06:31:15.407Z,15.60
2023-10-26T06:33:43.716Z,15.60
2023-10-26T06:36:12.393Z,15.50
2023-10-26T06:38:41.992Z,15.50
2023-10-26T06:41:17.141Z,15.60
2023-10-26T06:43:45.063Z,15.60
2023-10-26T06:46:14.922Z,15.60
2023-10-26T06:48:49.417Z,15.60
2023-10-26T06:51:17.442Z,15.60
2023-10-26T06:53:45.408Z,15.60
2023-10-26T06:56:13.865Z,15.60
2023-10-26T06:58:43.493Z,15.50
2023-10-26T07:01:20.708Z,15.50
2023-10-26T07:03:53.959Z,15.60
2023-10-26T07:06:25.184Z,15.50
2023-10-26T07:08:56.451Z,15.70
2023-10-26T07:11:25.222Z,15.70
2023-10-26T07:13:53.147Z,15.70
2023-10-26T07:16:21.089Z,15.80
2023-10-26T07:18:49.216Z,15.90
2023-10-26T07:21:20.874Z,15.90
2023-10-26T07:23:49.027Z,15.90
2023-10-26T07:26:23.065Z,15.80
2023-10-26T07:28:50.996Z,15.70
2023-10-26T07:31:20.565Z,15.60
2023-10-26T07:33:49.118Z,15.50
2023-10-26T07:36:27.212Z,15.50
2023-10-26T07:39:45.130Z,15.50
2023-10-26T07:42:07.252Z,15.30
2023-10-26T07:44:38.572Z,15.20
2023-10-26T07:47:09.649Z,15.30
2023-10-26T07:49:38.021Z,15.30
2023-10-26T07:52:07.780Z,15.40
2023-10-26T07:54:35.727Z,15.40
2023-10-26T07:57:03.852Z,15.50
2023-10-26T07:59:32.019Z,15.50
2023-10-26T08:02:11.792Z,15.50
2023-10-26T08:04:39.773Z,15.40
2023-10-26T08:07:09.540Z,15.40
2023-10-26T08:09:43.572Z,15.40
2023-10-26T08:12:12.810Z,15.30
2023-10-26T08:16:09.979Z,15.40
2023-10-26T08:17:36.919Z,15.40
2023-10-26T08:20:08.436Z,15.50
2023-10-26T08:22:40.921Z,15.50
2023-10-26T08:25:09.774Z,15.60
2023-10-26T08:27:37.920Z,15.60
2023-10-26T08:30:09.655Z,15.60
2023-10-26T08:32:40.462Z,15.70
2023-10-26T08:35:11.439Z,15.60
2023-10-26T08:37:43.224Z,15.60
2023-10-26T08:40:23.454Z,15.60
2023-10-26T08:42:53.394Z,15.60
2023-10-26T08:45:32.957Z,15.60
2023-10-26T08:48:04.878Z,15.60
2023-10-26T08:50:33.452Z,15.60
2023-10-26T08:53:05.866Z,15.60
2023-10-26T08:55:35.021Z,15.70
2023-10-26T08:58:06.086Z,15.60
2023-10-26T09:00:38.516Z,15.70
2023-10-26T09:03:09.883Z,15.70
2023-10-26T09:05:54.273Z,15.80
2023-10-26T09:08:24.533Z,15.80
2023-10-26T09:10:52.954Z,15.70
2023-10-26T09:13:28.511Z,15.60
2023-10-26T09:16:00.629Z,15.70
2023-10-26T09:18:32.261Z,15.70
2023-10-26T09:21:04.485Z,15.70
2023-10-26T09:23:41.219Z,15.70
2023-10-26T09:26:10.884Z,15.80
2023-10-26T09:28:53.123Z,15.80
2023-10-26T09:31:21.842Z,15.70
2023-10-26T09:33:53.036Z,15.80
2023-10-26T09:36:22.327Z,15.80
2023-10-26T09:38:51.724Z,15.90
2023-10-26T09:41:22.721Z,15.90
2023-10-26T09:43:50.787Z,15.90
2023-10-26T09:46:19.654Z,16.10
2023-10-26T09:48:52.720Z,16.00
2023-10-26T09:51:23.546Z,16.00
2023-10-26T09:54:04.136Z,16.00
2023-10-26T09:56:33.938Z,16.00
2023-10-26T09:59:02.087Z,16.00
2023-10-26T10:01:42.093Z,16.10
2023-10-26T10:04:12.367Z,16.00
2023-10-26T10:06:56.499Z,16.20
2023-10-26T10:09:32.844Z,16.10
2023-10-26T10:12:36.191Z,16.00
2023-10-26T10:18:16.781Z,16.30
2023-10-26T10:20:50.097Z,16.30
2023-10-26T10:23:31.709Z,16.40
2023-10-26T10:26:16.163Z,16.30
2023-10-26T10:28:53.418Z,16.30
2023-10-26T10:31:40.819Z,16.50
2023-10-26T10:34:12.006Z,16.60
2023-10-26T10:37:14.871Z,16.50
2023-10-26T10:40:14.572Z,16.60
2023-10-26T10:42:49.262Z,16.60
2023-10-26T10:45:18.553Z,16.70
2023-10-26T10:47:52.233Z,16.60
2023-10-26T10:50:23.698Z,16.60
2023-10-26T10:52:55.241Z,16.70
2023-10-26T10:55:29.923Z,16.60
2023-10-26T10:58:03.363Z,16.50
2023-10-26T11:00:45.520Z,16.40
2023-10-26T11:03:19.443Z,16.50
2023-10-26T11:05:59.992Z,16.50
2023-10-26T11:08:28.092Z,16.50
2023-10-26T11:10:56.348Z,16.50
2023-10-26T11:13:28.636Z,16.60
2023-10-26T11:15:56.664Z,16.90
2023-10-26T11:18:25.071Z,16.70
2023-10-26T11:20:53.131Z,16.70
2023-10-26T11:23:26.224Z,16.50
2023-10-26T11:25:54.692Z,16.30
2023-10-26T11:28:44.865Z,16.20
2023-10-26T11:31:16.042Z,16.10
2023-10-26T11:33:44.211Z,16.10
2023-10-26T11:36:13.406Z,16.10
2023-10-26T11:38:47.982Z,16.00
2023-10-26T11:41:22.116Z,16.10
2023-10-26T11:43:51.426Z,16.00
2023-10-26T11:46:38.052Z,16.00
2023-10-26T11:49:07.162Z,16.00
2023-10-26T11:51:47.516Z,16.00
2023-10-26T11:54:21.819Z,16.10
2023-10-26T11:56:52.788Z,16.10
2023-10-26T11:59:22.092Z,16.10
2023-10-26T12:01:50.032Z,16.10
2023-10-26T12:04:27.090Z,16.10
2023-10-26T12:06:58.007Z,16.10
2023-10-26T12:09:26.091Z,16.10
2023-10-26T12:11:54.021Z,16.20
2023-10-26T12:14:31.005Z,16.20
2023-10-26T12:17:01.053Z,16.20
2023-10-26T12:19:35.134Z,16.20
2023-10-26T12:22:03.069Z,16.30
2023-10-26T12:24:31.221Z,16.20
2023-10-26T12:27:02.148Z,16.30
2023-10-26T12:29:31.611Z,16.30
2023-10-26T12:32:12.126Z,16.20
2023-10-26T12:34:42.523Z,16.20
2023-10-26T12:37:13.605Z,16.20
2023-10-26T12:39:41.540Z,16.20
2023-10-26T12:42:11.755Z,16.20
2023-10-26T12:44:41.182Z,16.20
2023-10-26T12:47:12.371Z,16.20
2023-10-26T12:49:40.453Z,16.20
2023-10-26T12:52:10.796Z,16.10
2023-10-26T12:54:38.724Z,16.10
2023-10-26T12:57:07.361Z,16.00
2023-10-26T12:59:38.257Z,16.00
2023-10-26T13:02:10.194Z,16.10
2023-10-26T13:04:38.233Z,16.00
2023-10-26T13:07:06.249Z,16.10
2023-10-26T13:09:34.171Z,16.10
2023-10-26T13:12:05.504Z,16.10
2023-10-26T13:14:33.402Z,16.00
2023-10-26T13:17:07.094Z,16.10
2023-10-26T13:19:35.121Z,16.10
2023-10-26T13:22:03.173Z,16.10
2023-10-26T13:24:31.985Z,16.20
2023-10-26T13:27:00.018Z,16.40
2023-10-26T13:29:28.005Z,16.40
2023-10-26T13:31:59.499Z,16.60
2023-10-26T13:34:31.122Z,16.80
2023-10-26T13:37:02.060Z,16.90
2023-10-26T13:39:30.128Z,16.90
2023-10-26T13:41:58.254Z,16.90
2023-10-26T13:44:38.727Z,16.90
2023-10-26T13:47:06.796Z,16.90
2023-10-26T13:49:38.974Z,16.90
2023-10-26T13:52:09.528Z,16.90
2023-10-26T13:54:37.536Z,17.00
2023-10-26T13:57:08.093Z,17.00
2023-10-26T13:59:38.580Z,17.00
2023-10-26T14:02:05.554Z,17.00
2023-10-26T14:04:34.060Z,17.00
2023-10-26T14:07:10.741Z,17.10
2023-10-26T14:09:38.788Z,17.10
2023-10-26T14:12:07.660Z,17.10
2023-10-26T14:14:36.504Z,17.10
2023-10-26T14:17:05.588Z,17.10
2023-10-26T14:19:36.484Z,17.10
2023-10-26T14:22:14.901Z,17.10
2023-10-26T14:24:46.605Z,17.10
2023-10-26T14:27:14.679Z,17.10
2023-10-26T14:29:42.642Z,17.00
2023-10-26T14:32:13.469Z,17.00
2023-10-26T14:34:41.425Z,17.00
2023-10-26T14:37:13.070Z,17.00
2023-10-26T14:39:42.444Z,17.00
2023-10-26T14:42:11.700Z,16.90
2023-10-26T14:44:56.724Z,16.80
2023-10-26T14:47:24.662Z,16.70
2023-10-26T14:49:52.584Z,16.70
2023-10-26T14:52:23.178Z,16.70
2023-10-26T14:54:52.461Z,16.70
2023-10-26T14:57:20.392Z,16.80
2023-10-26T14:59:48.349Z,16.80
2023-10-26T15:02:16.273Z,16.80
2023-10-26T15:04:44.409Z,16.80
2023-10-26T15:07:13.412Z,16.70
2023-10-26T15:10:22.258Z,16.60
2023-10-26T15:12:36.079Z,16.60
2023-10-26T15:15:04.127Z,16.70
2023-10-26T15:17:34.543Z,16.70
2023-10-26T15:20:02.718Z,16.70
2023-10-26T15:22:36.439Z,16.60
2023-10-26T15:25:04.664Z,16.50
2023-10-26T15:27:36.554Z,16.40
2023-10-26T15:30:05.105Z,16.30
2023-10-26T15:32:33.059Z,16.10
2023-10-26T15:35:03.830Z,16.00
2023-10-26T15:37:34.627Z,16.00
2023-10-26T15:40:02.589Z,16.10
2023-10-26T15:42:30.936Z,16.00
2023-10-26T15:45:00.276Z,15.90
2023-10-26T15:47:34.450Z,15.80
2023-10-26T15:50:02.647Z,15.70
2023-10-26T15:52:33.809Z,15.60
2023-10-26T15:55:01.780Z,15.60
2023-10-26T15:57:31.361Z,15.60
2023-10-26T16:00:01.709Z,15.50
2023-10-26T16:02:29.837Z,15.60
2023-10-26T16:04:57.761Z,15.70
2023-10-26T16:07:31.269Z,15.70
2023-10-26T16:09:59.997Z,15.60
2023-10-26T16:12:30.168Z,15.60
2023-10-26T16:14:58.071Z,15.50
2023-10-26T16:17:30.532Z,15.40
2023-10-26T16:19:59.046Z,15.20
2023-10-26T16:22:32.489Z,15.10
2023-10-26T16:25:00.464Z,15.10
2023-10-26T16:27:31.160Z,15.10
2023-10-26T16:30:05.577Z,15.00
2023-10-26T16:32:38.315Z,14.90
2023-10-26T16:35:07.572Z,14.90
2023-10-26T16:37:35.574Z,14.90
2023-10-26T16:40:03.670Z,14.80
2023-10-26T16:42:31.873Z,14.70
2023-10-26T16:44:59.763Z,14.60
2023-10-26T16:47:29.621Z,14.50
2023-10-26T16:50:01.695Z,14.50
2023-10-26T16:52:29.631Z,14.40
2023-10-26T16:54:57.563Z,14.30
2023-10-26T16:57:28.549Z,14.30
2023-10-26T16:59:56.437Z,14.20
2023-10-26T17:02:27.421Z,14.20
2023-10-26T17:04:56.551Z,14.10
2023-10-26T17:07:26.906Z,14.30
2023-10-26T17:09:57.617Z,14.40
2023-10-26T17:12:25.552Z,14.40
2023-10-26T17:15:05.848Z,14.40
2023-10-26T17:17:37.780Z,14.30
2023-10-26T17:20:06.888Z,14.30
2023-10-26T17:22:36.146Z,14.30
2023-10-26T17:25:04.274Z,14.40
2023-10-26T17:27:33.185Z,14.30
2023-10-26T17:30:00.149Z,14.20
2023-10-26T17:32:28.234Z,14.00
2023-10-26T17:34:58.903Z,14.00
2023-10-26T17:37:38.800Z,13.90
2023-10-26T17:40:07.448Z,13.80
2023-10-26T17:42:37.123Z,13.80
2023-10-26T17:45:05.677Z,13.70
2023-10-26T17:47:33.790Z,13.70
2023-10-26T17:50:05.068Z,13.90
2023-10-26T17:52:35.788Z,14.00
2023-10-26T17:55:05.640Z,14.10
2023-10-26T17:57:41.813Z,14.00
2023-10-26T18:00:10.535Z,14.00
2023-10-26T18:02:38.516Z,13.90
2023-10-26T18:05:13.430Z,13.80
2023-10-26T18:07:41.369Z,13.80
2023-10-26T18:10:11.180Z,13.70
2023-10-26T18:12:39.186Z,13.70
2023-10-26T18:15:13.036Z,13.70
2023-10-26T18:17:44.256Z,13.60
2023-10-26T18:20:13.329Z,13.60
2023-10-26T18:22:44.777Z,13.70
2023-10-26T18:25:14.074Z,13.80
2023-10-26T18:27:44.403Z,14.00
2023-10-26T18:30:13.454Z,14.10
2023-10-26T18:32:41.393Z,14.10
2023-10-26T18:35:18.727Z,14.10
2023-10-26T18:37:46.627Z,14.00
2023-10-26T18:40:22.055Z,14.00
2023-10-26T18:42:50.082Z,13.90
2023-10-26T18:45:18.148Z,13.90
2023-10-26T18:47:55.032Z,13.80
2023-10-26T18:50:23.009Z,13.70
2023-10-26T18:53:01.648Z,13.60
2023-10-26T18:55:35.408Z,13.60
2023-10-26T18:58:03.468Z,13.60
2023-10-26T19:00:37.513Z,13.60
2023-10-26T19:03:09.954Z,13.60
2023-10-26T19:05:38.237Z,13.60
2023-10-26T19:08:09.979Z,13.60
2023-10-26T19:10:45.304Z,13.70
2023-10-26T19:13:19.341Z,13.70
2023-10-26T19:15:47.811Z,13.70
2023-10-26T19:18:16.077Z,13.70
2023-10-26T19:20:47.091Z,13.70
2023-10-26T19:23:15.035Z,13.60
2023-10-26T19:25:47.506Z,13.60
2023-10-26T19:28:15.465Z,13.60
2023-10-26T19:30:46.220Z,13.70
2023-10-26T19:33:16.283Z,13.80
2023-10-26T19:35:44.236Z,13.80
2023-10-26T19:38:21.107Z,13.80
2023-10-26T19:40:53.144Z,13.70
2023-10-26T19:43:27.238Z,13.60
2023-10-26T19:45:55.258Z,13.50
2023-10-26T19:48:23.202Z,13.50
2023-10-26T19:50:51.121Z,13.50
2023-10-26T19:53:22.492Z,13.50
2023-10-26T19:55:58.049Z,13.50
2023-10-26T19:58:27.752Z,13.60
2023-10-26T20:00:58.570Z,13.60
2023-10-26T20:03:29.378Z,13.60
2023-10-26T20:06:07.751Z,13.70
2023-10-26T20:08:36.915Z,13.80
2023-10-26T20:11:06.421Z,13.80
2023-10-26T20:13:37.289Z,13.70
2023-10-26T20:16:09.164Z,13.70
2023-10-26T20:18:40.440Z,13.60
2023-10-26T20:21:08.724Z,13.60
2023-10-26T20:23:36.615Z,13.50
2023-10-26T20:26:08.937Z,13.40
2023-10-26T20:28:39.870Z,13.40
2023-10-26T20:31:11.181Z,13.30
2023-10-26T20:33:39.188Z,13.30
2023-10-26T20:36:08.034Z,13.20
2023-10-26T20:38:35.992Z,13.20
2023-10-26T20:41:03.926Z,13.20
2023-10-26T20:43:40.645Z,13.20
2023-10-26T20:46:12.670Z,13.20
2023-10-26T20:48:46.944Z,13.20
2023-10-26T20:51:15.785Z,13.20
2023-10-26T20:53:46.604Z,13.20
2023-10-26T20:56:15.039Z,13.20
2023-10-26T20:58:44.304Z,13.20
2023-10-26T21:01:12.701Z,13.20
2023-10-26T21:03:44.778Z,13.20
2023-10-26T21:06:14.373Z,13.10
2023-10-26T21:08:45.084Z,13.10
2023-10-26T21:11:16.901Z,13.40
2023-10-26T21:13:46.829Z,13.50
2023-10-26T21:16:15.213Z,13.50
2023-10-26T21:18:43.802Z,13.50
2023-10-26T21:21:28.485Z,13.40
2023-10-26T21:23:56.478Z,13.40
2023-10-26T21:26:36.392Z,13.30
2023-10-26T21:29:13.072Z,13.30
2023-10-26T21:31:47.296Z,13.20
2023-10-26T21:34:15.319Z,13.20
2023-10-26T21:36:43.363Z,13.20
2023-10-26T21:39:14.119Z,13.20
2023-10-26T21:41:54.826Z,13.10
2023-10-26T21:44:24.087Z,13.10
2023-10-26T21:46:52.064Z,13.10
2023-10-26T21:49:22.907Z,13.00
2023-10-26T21:51:56.694Z,13.00
2023-10-26T21:54:24.608Z,13.00
2023-10-26T21:56:55.290Z,13.00
2023-10-26T21:59:24.624Z,13.00
2023-10-26T22:01:58.956Z,13.00
2023-10-26T22:04:25.919Z,13.00
2023-10-26T22:06:59.844Z,13.00
2023-10-26T22:09:28.632Z,12.90
2023-10-26T22:11:56.601Z,13.00
2023-10-26T22:14:25.893Z,13.20
2023-10-26T22:16:57.096Z,13.30
2023-10-26T22:19:25.166Z,13.20
2023-10-26T22:21:56.661Z,13.20
2023-10-26T22:24:30.395Z,13.20
2023-10-26T22:27:11.832Z,13.20
2023-10-26T22:29:53.429Z,13.20
2023-10-26T22:32:21.304Z,13.20
2023-10-26T22:34:52.610Z,13.10
2023-10-26T22:37:20.784Z,13.00
2023-10-26T22:39:54.866Z,13.00
2023-10-26T22:42:22.885Z,13.00
2023-10-26T22:44:54.932Z,13.00
2023-10-26T22:47:23.374Z,13.10
2023-10-26T22:49:51.433Z,13.30
2023-10-26T22:52:25.553Z,13.30
2023-10-26T22:54:53.727Z,13.20
2023-10-26T22:57:21.674Z,13.20
2023-10-26T22:59:49.925Z,13.20
2023-10-26T23:02:19.209Z,13.10
2023-10-26T23:04:49.567Z,13.10
2023-10-26T23:07:17.821Z,13.00
2023-10-26T23:09:46.364Z,12.90
2023-10-26T23:12:14.444Z,13.00
2023-10-26T23:14:42.361Z,12.90
2023-10-26T23:17:10.296Z,12.90
2023-10-26T23:19:42.341Z,12.90
2023-10-26T23:22:11.067Z,12.90
2023-10-26T23:24:41.950Z,12.80
2023-10-26T23:27:13.433Z,12.80
2023-10-26T23:29:51.018Z,12.70
2023-10-26T23:32:24.186Z,12.70
2023-10-26T23:34:53.537Z,12.70
2023-10-26T23:37:21.544Z,12.80
2023-10-26T23:39:49.653Z,12.90
2023-10-26T23:42:18.528Z,12.90
2023-10-26T23:47:31.318Z,12.90
2023-10-26T23:50:00.593Z,12.90
2023-10-26T23:52:28.576Z,12.90
2023-10-26T23:54:56.677Z,12.90
2023-10-26T23:57:27.624Z,12.90
2023-10-26T23:59:58.372Z,12.90
